| time (UTC) | temp C | wind direction | speed KPH | gust KPH | rain 1hr cm | rain 24hr cm | rain mn cm | humidity % | barometer mb |
| 20260508110108 | 17 | 335 | 19.3 | 25.7 | 0.00 | 0.00 | 0.00 | 65 | 1012.0 |
| 20260508105607 | 17 | 283 | 11.3 | 20.9 | 0.00 | 0.00 | 0.00 | 65 | 1011.9 |
| 20260508105105 | 17 | 333 | 14.5 | 20.9 | 0.00 | 0.00 | 0.00 | 65 | 1012.0 |
| 20260508104603 | 17 | 265 | 9.7 | 17.7 | 0.00 | 0.00 | 0.00 | 66 | 1011.7 |
| 20260508104059 | 17 | 279 | 11.3 | 14.5 | 0.00 | 0.00 | 0.00 | 65 | 1011.7 |
| 20260508103556 | 17 | 26 | 19.3 | 24.1 | 0.00 | 0.00 | 0.00 | 65 | 1011.6 |
| 20260508103053 | 18 | 314 | 17.7 | 22.5 | 0.00 | 0.00 | 0.00 | 65 | 1011.4 |
| 20260508102551 | 18 | 327 | 11.3 | 22.5 | 0.00 | 0.00 | 0.00 | 66 | 1011.2 |
| 20260508102048 | 18 | 324 | 14.5 | 22.5 | 0.00 | 0.00 | 0.00 | 65 | 1011.1 |
| 20260508101546 | 18 | 286 | 14.5 | 27.4 | 0.00 | 0.00 | 0.00 | 65 | 1011.0 |
| 20260508101043 | 19 | 23 | 12.9 | 22.5 | 0.00 | 0.00 | 0.00 | 65 | 1011.0 |
| 20260508100541 | 19 | 289 | 14.5 | 17.7 | 0.00 | 0.00 | 0.00 | 65 | 1010.9 |
| 20260508100037 | 19 | 329 | 14.5 | 17.7 | 0.00 | 0.00 | 0.00 | 65 | 1010.5 |
| 20260508095535 | 20 | 268 | 11.3 | 12.9 | 0.00 | 0.00 | 0.00 | 65 | 1010.5 |
| 20260508095031 | 20 | 316 | 9.7 | 17.7 | 0.00 | 0.00 | 0.00 | 64 | 1010.3 |
| 20260508094528 | 20 | 315 | 9.7 | 16.1 | 0.00 | 0.00 | 0.00 | 64 | 1010.4 |
| 20260508094025 | 21 | 8 | 19.3 | 24.1 | 0.00 | 0.00 | 0.00 | 61 | 1010.3 |
| 20260508093522 | 22 | 334 | 16.1 | 25.7 | 0.00 | 0.00 | 0.00 | 51 | 1010.0 |
| 20260508093020 | 22 | 316 | 8.0 | 11.3 | 0.00 | 0.00 | 0.00 | 49 | 1009.8 |
| 20260508092517 | 22 | 262 | 6.4 | 11.3 | 0.00 | 0.00 | 0.00 | 49 | 1009.6 |
| 20260508092016 | 22 | 272 | 12.9 | 16.1 | 0.00 | 0.00 | 0.00 | 48 | 1009.4 |
| 20260508091513 | 23 | 285 | 11.3 | 14.5 | 0.00 | 0.00 | 0.00 | 47 | 1009.3 |
| 20260508091009 | 23 | 214 | 8.0 | 20.9 | 0.00 | 0.00 | 0.00 | 46 | 1009.2 |
| 20260508090508 | 23 | 202 | 11.3 | 17.7 | 0.00 | 0.00 | 0.00 | 47 | 1009.1 |
| 20260508090004 | 23 | 234 | 9.7 | 22.5 | 0.00 | 0.00 | 0.00 | 47 | 1009.1 |
| 20260508085500 | 23 | 270 | 11.3 | 16.1 | 0.00 | 0.00 | 0.00 | 45 | 1008.9 |
| 20260508084957 | 23 | 280 | 14.5 | 24.1 | 0.00 | 0.00 | 0.00 | 45 | 1009.1 |
| 20260508084454 | 24 | 209 | 16.1 | 20.9 | 0.00 | 0.00 | 0.00 | 43 | 1008.8 |
| 20260508083952 | 24 | 322 | 16.1 | 24.1 | 0.00 | 0.00 | 0.00 | 42 | 1008.7 |
| 20260508083449 | 24 | 289 | 16.1 | 24.1 | 0.00 | 0.00 | 0.00 | 43 | 1008.6 |
| 20260508082944 | 24 | 281 | 12.9 | 16.1 | 0.00 | 0.00 | 0.00 | 42 | 1008.5 |
| 20260508082442 | 24 | 264 | 9.7 | 14.5 | 0.00 | 0.00 | 0.00 | 42 | 1008.5 |
| 20260508081939 | 24 | 287 | 11.3 | 22.5 | 0.00 | 0.00 | 0.00 | 42 | 1008.4 |
| 20260508081436 | 24 | 257 | 8.0 | 17.7 | 0.00 | 0.00 | 0.00 | 43 | 1008.5 |
| 20260508080932 | 24 | 291 | 8.0 | 11.3 | 0.00 | 0.00 | 0.00 | 43 | 1008.4 |
| 20260508080430 | 24 | 281 | 9.7 | 12.9 | 0.00 | 0.00 | 0.00 | 43 | 1008.4 |
| 20260508075926 | 23 | 312 | 11.3 | 16.1 | 0.00 | 0.00 | 0.00 | 42 | 1008.4 |
| 20260508075424 | 24 | 276 | 9.7 | 14.5 | 0.00 | 0.00 | 0.00 | 42 | 1008.3 |
| 20260508074921 | 24 | 290 | 16.1 | 24.1 | 0.00 | 0.00 | 0.00 | 41 | 1008.2 |
| 20260508074418 | 24 | 289 | 17.7 | 20.9 | 0.00 | 0.00 | 0.00 | 44 | 1008.4 |
| 20260508073915 | 24 | 315 | 6.4 | 14.5 | 0.00 | 0.00 | 0.00 | 45 | 1008.3 |
| 20260508073413 | 24 | 319 | 8.0 | 12.9 | 0.00 | 0.00 | 0.00 | 47 | 1008.2 |
| 20260508072910 | 24 | 239 | 6.4 | 11.3 | 0.00 | 0.00 | 0.00 | 48 | 1008.5 |
| 20260508072406 | 24 | 298 | 6.4 | 11.3 | 0.00 | 0.00 | 0.00 | 49 | 1008.3 |
| 20260508071903 | 24 | 276 | 9.7 | 14.5 | 0.00 | 0.00 | 0.00 | 49 | 1008.3 |
| 20260508071401 | 24 | 293 | 6.4 | 11.3 | 0.00 | 0.00 | 0.00 | 54 | 1008.4 |
| 20260508070859 | 24 | 216 | 4.8 | 4.8 | 0.00 | 0.00 | 0.00 | 53 | 1008.3 |
| 20260508070357 | 24 | 312 | 3.2 | 6.4 | 0.00 | 0.00 | 0.00 | 58 | 1008.4 |
| 20260508065854 | 24 | 274 | 12.9 | 16.1 | 0.00 | 0.00 | 0.00 | 52 | 1008.5 |
| 20260508065352 | 24 | 163 | 1.6 | 3.2 | 0.00 | 0.00 | 0.00 | 59 | 1008.5 |
| 20260508064850 | 23 | 260 | 1.6 | 4.8 | 0.00 | 0.00 | 0.00 | 60 | 1008.7 |
| 20260508064347 | 23 | 311 | 4.8 | 11.3 | 0.00 | 0.00 | 0.00 | 59 | 1008.9 |
| 20260508063845 | 23 | 168 | 0.0 | 1.6 | 0.00 | 0.00 | 0.00 | 70 | 1008.8 |
| 20260508063342 | 23 | 336 | 3.2 | 3.2 | 0.00 | 0.00 | 0.00 | 69 | 1008.7 |
| 20260508062839 | 23 | 114 | 0.0 | 1.6 | 0.00 | 0.00 | 0.00 | 71 | 1008.6 |
| 20260508062337 | 23 | 347 | 3.2 | 3.2 | 0.00 | 0.00 | 0.00 | 69 | 1008.7 |
| 20260508061833 | 23 | 308 | 4.8 | 4.8 | 0.00 | 0.00 | 0.00 | 69 | 1008.6 |
| 20260508061331 | 23 | 196 | 1.6 | 4.8 | 0.00 | 0.00 | 0.00 | 69 | 1008.7 |
| 20260508060827 | 23 | 152 | 0.0 | 3.2 | 0.00 | 0.00 | 0.00 | 70 | 1008.8 |
| 20260508060325 | 23 | 137 | 0.0 | 1.6 | 0.00 | 0.00 | 0.00 | 71 | 1008.9 |
| 20260508055820 | 23 | 245 | 1.6 | 3.2 | 0.00 | 0.00 | 0.00 | 70 | 1008.8 |
| 20260508055318 | 23 | 121 | 0.0 | 1.6 | 0.00 | 0.00 | 0.00 | 70 | 1008.8 |
| 20260508054814 | 23 | 17 | 1.6 | 3.2 | 0.00 | 0.00 | 0.00 | 70 | 1008.7 |
| 20260508054312 | 23 | 292 | 1.6 | 3.2 | 0.00 | 0.00 | 0.00 | 71 | 1008.8 |
| 20260508053808 | 23 | 150 | 0.0 | 0.0 | 0.00 | 0.00 | 0.00 | 72 | 1009.0 |
| 20260508053306 | 22 | 135 | 0.0 | 1.6 | 0.00 | 0.00 | 0.00 | 72 | 1009.1 |
| 20260508052803 | 22 | 134 | 1.6 | 1.6 | 0.00 | 0.00 | 0.00 | 73 | 1009.3 |
| 20260508052300 | 22 | 107 | 0.0 | 3.2 | 0.00 | 0.00 | 0.00 | 73 | 1009.1 |
| 20260508051756 | 22 | 102 | 0.0 | 3.2 | 0.00 | 0.00 | 0.00 | 72 | 1009.3 |
| 20260508051251 | 22 | 64 | 0.0 | 3.2 | 0.00 | 0.00 | 0.00 | 73 | 1009.2 |
| 20260508050748 | 22 | 55 | 3.2 | 4.8 | 0.00 | 0.00 | 0.00 | 72 | 1009.1 |
| 20260508050246 | 22 | 95 | 1.6 | 3.2 | 0.00 | 0.00 | 0.00 | 74 | 1009.1 |
| 20260508045741 | 22 | 60 | 3.2 | 3.2 | 0.00 | 0.00 | 0.00 | 73 | 1009.3 |
| 20260508045239 | 22 | 101 | 3.2 | 3.2 | 0.00 | 0.00 | 0.00 | 74 | 1009.4 |
| 20260508044736 | 22 | 92 | 1.6 | 3.2 | 0.00 | 0.00 | 0.00 | 73 | 1009.3 |
| 20260508044233 | 22 | 86 | 1.6 | 3.2 | 0.00 | 0.00 | 0.00 | 73 | 1009.2 |
| 20260508043729 | 22 | 76 | 1.6 | 6.4 | 0.00 | 0.00 | 0.00 | 74 | 1009.0 |
| 20260508043227 | 22 | 101 | 3.2 | 9.7 | 0.00 | 0.00 | 0.00 | 73 | 1009.1 |
| 20260508042723 | 22 | 81 | 0.0 | 6.4 | 0.00 | 0.00 | 0.00 | 74 | 1009.2 |
| 20260508042221 | 22 | 79 | 3.2 | 6.4 | 0.00 | 0.00 | 0.00 | 73 | 1009.4 |
| 20260508041717 | 22 | 79 | 1.6 | 4.8 | 0.00 | 0.00 | 0.00 | 73 | 1009.2 |
| 20260508041214 | 22 | 64 | 3.2 | 4.8 | 0.00 | 0.00 | 0.00 | 74 | 1009.1 |
| 20260508040710 | 22 | 67 | 3.2 | 4.8 | 0.00 | 0.00 | 0.00 | 74 | 1009.4 |
| 20260508040208 | 22 | 86 | 4.8 | 4.8 | 0.00 | 0.00 | 0.00 | 74 | 1009.3 |
| 20260508035705 | 22 | 65 | 1.6 | 3.2 | 0.00 | 0.00 | 0.00 | 74 | 1009.7 |
| 20260508035202 | 23 | 77 | 1.6 | 4.8 | 0.00 | 0.00 | 0.00 | 74 | 1009.7 |
| 20260508034659 | 23 | 136 | 0.0 | 1.6 | 0.00 | 0.00 | 0.00 | 74 | 1009.6 |
| 20260508034156 | 23 | 110 | 0.0 | 3.2 | 0.00 | 0.00 | 0.00 | 75 | 1009.8 |
| 20260508033653 | 23 | 109 | 3.2 | 6.4 | 0.00 | 0.00 | 0.00 | 74 | 1010.0 |
| 20260508033151 | 22 | 69 | 3.2 | 3.2 | 0.00 | 0.00 | 0.00 | 76 | 1009.9 |
| 20260508032648 | 22 | 52 | 3.2 | 4.8 | 0.00 | 0.00 | 0.00 | 76 | 1009.9 |
| 20260508032145 | 23 | 77 | 6.4 | 9.7 | 0.00 | 0.00 | 0.00 | 75 | 1009.9 |
| 20260508031642 | 23 | 100 | 1.6 | 4.8 | 0.00 | 0.00 | 0.00 | 76 | 1010.0 |
| 20260508031138 | 23 | 340 | 4.8 | 9.7 | 0.00 | 0.00 | 0.00 | 75 | 1010.1 |
| 20260508030635 | 22 | 306 | 4.8 | 6.4 | 0.00 | 0.00 | 0.00 | 77 | 1010.4 |
| 20260508030133 | 22 | 35 | 6.4 | 6.4 | 0.00 | 0.00 | 0.00 | 77 | 1010.4 |
| 20260508025629 | 22 | 32 | 4.8 | 6.4 | 0.00 | 0.00 | 0.00 | 77 | 1010.5 |
| 20260508025126 | 22 | 67 | 0.0 | 4.8 | 0.00 | 0.00 | 0.00 | 77 | 1010.4 |
| 20260508024621 | 22 | 15 | 8.0 | 9.7 | 0.00 | 0.00 | 0.00 | 78 | 1010.3 |
| 20260508024119 | 22 | 36 | 4.8 | 6.4 | 0.00 | 0.00 | 0.00 | 78 | 1010.3 |
| 20260508023615 | 22 | 36 | 3.2 | 4.8 | 0.00 | 0.00 | 0.00 | 77 | 1010.6 |
| 20260508023113 | 22 | 79 | 1.6 | 9.7 | 0.00 | 0.00 | 0.00 | 78 | 1010.2 |
| 20260508022608 | 22 | 20 | 8.0 | 12.9 | 0.00 | 0.00 | 0.00 | 78 | 1010.4 |
| 20260508022106 | 22 | 20 | 8.0 | 14.5 | 0.00 | 0.00 | 0.00 | 79 | 1010.5 |
| 20260508021601 | 22 | 6 | 6.4 | 11.3 | 0.00 | 0.00 | 0.00 | 77 | 1010.9 |
| 20260508021058 | 22 | 108 | 1.6 | 4.8 | 0.00 | 0.00 | 0.00 | 76 | 1010.8 |
| 20260508020555 | 23 | 333 | 4.8 | 4.8 | 0.00 | 0.00 | 0.00 | 75 | 1010.7 |
| 20260508020053 | 22 | 167 | 1.6 | 3.2 | 0.00 | 0.00 | 0.00 | 76 | 1010.7 |
| 20260508015550 | 22 | 63 | 1.6 | 3.2 | 0.00 | 0.00 | 0.00 | 76 | 1010.6 |
| 20260508015047 | 22 | 158 | 1.6 | 3.2 | 0.00 | 0.00 | 0.00 | 76 | 1010.8 |
| 20260508014543 | 22 | 75 | 0.0 | 6.4 | 0.00 | 0.00 | 0.00 | 77 | 1010.6 |
| 20260508014040 | 22 | 82 | 3.2 | 4.8 | 0.00 | 0.00 | 0.00 | 76 | 1010.7 |
| 20260508013536 | 22 | 112 | 0.0 | 0.0 | 0.00 | 0.00 | 0.00 | 77 | 1010.8 |
| 20260508013033 | 22 | 159 | 3.2 | 4.8 | 0.00 | 0.00 | 0.00 | 76 | 1010.9 |
| 20260508012530 | 22 | 123 | 0.0 | 1.6 | 0.00 | 0.00 | 0.00 | 78 | 1010.8 |
| 20260508012028 | 22 | 89 | 0.0 | 3.2 | 0.00 | 0.00 | 0.00 | 78 | 1010.9 |
| 20260508011526 | 22 | 122 | 4.8 | 4.8 | 0.00 | 0.00 | 0.00 | 77 | 1010.9 |
| 20260508011023 | 21 | 185 | 1.6 | 4.8 | 0.00 | 0.00 | 0.00 | 79 | 1010.9 |
| 20260508010519 | 22 | 130 | 4.8 | 4.8 | 0.00 | 0.00 | 0.00 | 78 | 1011.1 |
| 20260508010017 | 21 | 105 | 0.0 | 4.8 | 0.00 | 0.00 | 0.00 | 79 | 1011.0 |
| 20260508005513 | 21 | 115 | 0.0 | 4.8 | 0.00 | 0.00 | 0.00 | 79 | 1011.2 |
| 20260508005010 | 21 | 137 | 3.2 | 3.2 | 0.00 | 0.00 | 0.00 | 78 | 1011.1 |
| 20260508004506 | 21 | 107 | 0.0 | 3.2 | 0.00 | 0.00 | 0.00 | 80 | 1011.4 |
| 20260508004003 | 21 | 174 | 3.2 | 4.8 | 0.00 | 0.00 | 0.00 | 79 | 1011.5 |
| 20260508003500 | 21 | 175 | 4.8 | 4.8 | 0.00 | 0.00 | 0.00 | 79 | 1011.6 |
| 20260508002957 | 21 | 87 | 3.2 | 9.7 | 0.00 | 0.00 | 0.00 | 79 | 1011.5 |
| 20260508002453 | 21 | 151 | 0.0 | 3.2 | 0.00 | 0.00 | 0.00 | 82 | 1011.5 |
| 20260508001949 | 21 | 126 | 1.6 | 3.2 | 0.00 | 0.00 | 0.00 | 83 | 1011.5 |
| 20260508001446 | 20 | 99 | 0.0 | 0.0 | 0.00 | 0.00 | 0.00 | 84 | 1011.5 |
| 20260508000942 | 20 | 203 | 0.0 | 1.6 | 0.00 | 0.00 | 0.00 | 85 | 1011.7 |
| 20260508000438 | 20 | 350 | 0.0 | 1.6 | 0.00 | 0.00 | 0.00 | 85 | 1011.6 |
| 20260507235935 | 20 | 120 | 1.6 | 1.6 | 0.00 | 0.00 | 0.00 | 85 | 1011.5 |
| 20260507235432 | 20 | 164 | 0.0 | 1.6 | 0.00 | 0.00 | 0.00 | 85 | 1011.9 |
| 20260507234930 | 20 | 145 | 0.0 | 3.2 | 0.00 | 0.00 | 0.00 | 86 | 1011.9 |
| 20260507234426 | 20 | 164 | 0.0 | 1.6 | 0.00 | 0.00 | 0.00 | 87 | 1011.9 |
| 20260507233922 | 20 | 296 | 3.2 | 4.8 | 0.00 | 0.00 | 0.00 | 86 | 1012.0 |
| 20260507233420 | 20 | 77 | 3.2 | 3.2 | 0.00 | 0.00 | 0.00 | 86 | 1011.9 |
| 20260507232918 | 20 | 160 | 1.6 | 1.6 | 0.00 | 0.00 | 0.00 | 87 | 1011.8 |
| 20260507232414 | 19 | 154 | 0.0 | 1.6 | 0.00 | 0.00 | 0.00 | 87 | 1012.1 |
| 20260507231912 | 19 | 188 | 1.6 | 4.8 | 0.00 | 0.00 | 0.00 | 88 | 1012.0 |
| 20260507231408 | 20 | 270 | 3.2 | 4.8 | 0.00 | 0.00 | 0.00 | 87 | 1011.9 |
| 20260507230904 | 19 | 179 | 0.0 | 1.6 | 0.00 | 0.00 | 0.00 | 88 | 1011.8 |
| 20260507230402 | 19 | 174 | 0.0 | 1.6 | 0.00 | 0.00 | 0.00 | 88 | 1011.8 |
| 20260507225902 | 19 | 182 | 1.6 | 1.6 | 0.00 | 0.00 | 0.00 | 87 | 1011.7 |
| 20260507225358 | 19 | 229 | 0.0 | 1.6 | 0.00 | 0.00 | 0.00 | 88 | 1011.7 |
| 20260507224854 | 19 | 229 | 0.0 | 0.0 | 0.00 | 0.00 | 0.00 | 88 | 1011.9 |
| 20260507224351 | 19 | 287 | 1.6 | 3.2 | 0.00 | 0.00 | 0.00 | 88 | 1011.9 |
| 20260507223847 | 19 | 298 | 1.6 | 3.2 | 0.00 | 0.00 | 0.00 | 89 | 1012.2 |
| 20260507223344 | 19 | 247 | 1.6 | 1.6 | 0.00 | 0.00 | 0.00 | 89 | 1012.3 |
| 20260507222841 | 19 | 174 | 0.0 | 0.0 | 0.00 | 0.00 | 0.00 | 90 | 1012.4 |
| 20260507222337 | 19 | 175 | 1.6 | 1.6 | 0.00 | 0.00 | 0.00 | 90 | 1012.4 |
| 20260507221834 | 19 | 162 | 0.0 | 0.0 | 0.00 | 0.00 | 0.00 | 90 | 1012.3 |
| 20260507221330 | 19 | 188 | 1.6 | 1.6 | 0.00 | 0.00 | 0.00 | 89 | 1012.4 |
| 20260507220826 | 19 | 270 | 1.6 | 3.2 | 0.00 | 0.00 | 0.00 | 89 | 1012.1 |
| 20260507220325 | 19 | 202 | 1.6 | 3.2 | 0.00 | 0.00 | 0.00 | 89 | 1012.1 |
| 20260507215821 | 19 | 287 | 1.6 | 1.6 | 0.00 | 0.00 | 0.00 | 89 | 1012.5 |
| 20260507215319 | 19 | 167 | 0.0 | 0.0 | 0.00 | 0.00 | 0.00 | 90 | 1012.4 |
| 20260507214816 | 18 | 90 | 1.6 | 1.6 | 0.00 | 0.00 | 0.00 | 90 | 1012.4 |
| 20260507214314 | 18 | 63 | 0.0 | 0.0 | 0.00 | 0.00 | 0.00 | 91 | 1012.0 |
| 20260507213813 | 18 | 270 | 3.2 | 4.8 | 0.00 | 0.00 | 0.00 | 90 | 1012.4 |
| 20260507213311 | 18 | 49 | 0.0 | 1.6 | 0.00 | 0.00 | 0.00 | 90 | 1012.2 |
| 20260507212808 | 18 | 12 | 3.2 | 4.8 | 0.00 | 0.00 | 0.00 | 91 | 1012.1 |
| 20260507212307 | 18 | 287 | 1.6 | 3.2 | 0.00 | 0.00 | 0.00 | 91 | 1012.3 |
| 20260507211800 | 18 | 156 | 0.0 | 0.0 | 0.00 | 0.00 | 0.00 | 92 | 1012.2 |
| 20260507211257 | 18 | 173 | 0.0 | 1.6 | 0.00 | 0.00 | 0.00 | 92 | 1012.0 |
| 20260507210754 | 18 | 257 | 0.0 | 0.0 | 0.00 | 0.00 | 0.00 | 92 | 1012.2 |
| 20260507210251 | 18 | 65 | 0.0 | 0.0 | 0.00 | 0.00 | 0.00 | 92 | 1012.0 |
| 20260507205747 | 18 | 65 | 0.0 | 0.0 | 0.00 | 0.00 | 0.00 | 92 | 1012.2 |
| 20260507205244 | 18 | 52 | 0.0 | 0.0 | 0.00 | 0.00 | 0.00 | 92 | 1012.3 |
| 20260507204740 | 18 | 278 | 0.0 | 0.0 | 0.00 | 0.00 | 0.00 | 92 | 1012.5 |
| 20260507204238 | 18 | 169 | 0.0 | 0.0 | 0.00 | 0.00 | 0.00 | 92 | 1012.3 |
| 20260507203736 | 18 | 169 | 0.0 | 0.0 | 0.00 | 0.00 | 0.00 | 92 | 1012.3 |
| 20260507203233 | 17 | 155 | 0.0 | 1.6 | 0.00 | 0.00 | 0.00 | 93 | 1012.3 |
| 20260507202729 | 17 | 213 | 1.6 | 3.2 | 0.00 | 0.00 | 0.00 | 93 | 1012.3 |
| 20260507202225 | 17 | 155 | 3.2 | 6.4 | 0.00 | 0.00 | 0.00 | 93 | 1011.9 |
| 20260507201720 | 17 | 135 | 6.4 | 6.4 | 0.00 | 0.00 | 0.00 | 93 | 1012.0 |
| 20260507201218 | 17 | 143 | 3.2 | 4.8 | 0.00 | 0.00 | 0.00 | 93 | 1012.3 |
| 20260507200714 | 17 | 163 | 0.0 | 1.6 | 0.00 | 0.00 | 0.00 | 93 | 1012.4 |
| 20260507200210 | 17 | 150 | 0.0 | 1.6 | 0.00 | 0.00 | 0.00 | 93 | 1012.5 |
| 20260507195706 | 17 | 183 | 1.6 | 1.6 | 0.00 | 0.00 | 0.00 | 93 | 1012.4 |
| 20260507195203 | 17 | 165 | 1.6 | 3.2 | 0.00 | 0.00 | 0.00 | 93 | 1012.3 |
| 20260507194700 | 17 | 161 | 0.0 | 1.6 | 0.00 | 0.00 | 0.00 | 93 | 1012.3 |
| 20260507194156 | 17 | 135 | 0.0 | 3.2 | 0.00 | 0.00 | 0.00 | 93 | 1012.7 |
| 20260507193653 | 17 | 153 | 0.0 | 0.0 | 0.00 | 0.00 | 0.00 | 92 | 1012.6 |
| 20260507193150 | 18 | 264 | 3.2 | 4.8 | 0.00 | 0.00 | 0.00 | 92 | 1012.8 |
| 20260507192646 | 18 | 286 | 4.8 | 4.8 | 0.00 | 0.00 | 0.00 | 92 | 1012.7 |
| 20260507192144 | 18 | 62 | 1.6 | 3.2 | 0.00 | 0.00 | 0.00 | 92 | 1012.5 |
| 20260507191639 | 18 | 272 | 6.4 | 6.4 | 0.00 | 0.00 | 0.00 | 92 | 1012.6 |
| 20260507191136 | 18 | 265 | 6.4 | 6.4 | 0.00 | 0.00 | 0.00 | 93 | 1012.5 |
| 20260507190633 | 18 | 226 | 1.6 | 3.2 | 0.00 | 0.00 | 0.00 | 93 | 1012.2 |
| 20260507190132 | 17 | 281 | 1.6 | 3.2 | 0.00 | 0.00 | 0.00 | 93 | 1012.5 |
| 20260507185630 | 17 | 257 | 1.6 | 3.2 | 0.00 | 0.00 | 0.00 | 94 | 1012.3 |
| 20260507185126 | 17 | 188 | 0.0 | 0.0 | 0.00 | 0.00 | 0.00 | 94 | 1012.5 |
| 20260507184624 | 17 | 176 | 0.0 | 0.0 | 0.00 | 0.00 | 0.00 | 94 | 1012.5 |
| 20260507184122 | 17 | 174 | 0.0 | 0.0 | 0.00 | 0.00 | 0.00 | 94 | 1012.4 |
| 20260507183618 | 17 | 193 | 0.0 | 0.0 | 0.00 | 0.00 | 0.00 | 94 | 1012.2 |
| 20260507183115 | 17 | 234 | 0.0 | 0.0 | 0.00 | 0.00 | 0.00 | 94 | 1012.3 |
| 20260507182611 | 17 | 170 | 0.0 | 0.0 | 0.00 | 0.00 | 0.00 | 94 | 1012.3 |
| 20260507182107 | 17 | 167 | 0.0 | 0.0 | 0.00 | 0.00 | 0.00 | 94 | 1012.2 |
| 20260507181604 | 17 | 159 | 0.0 | 0.0 | 0.00 | 0.00 | 0.00 | 93 | 1012.3 |
| 20260507181100 | 17 | 159 | 0.0 | 0.0 | 0.00 | 0.00 | 0.00 | 93 | 1012.2 |
| 20260507180558 | 17 | 159 | 0.0 | 0.0 | 0.00 | 0.00 | 0.00 | 93 | 1012.3 |
| 20260507180054 | 17 | 159 | 0.0 | 0.0 | 0.00 | 0.00 | 0.00 | 93 | 1012.2 |
| 20260507175550 | 17 | 170 | 0.0 | 0.0 | 0.00 | 0.00 | 0.00 | 93 | 1012.4 |
| 20260507175048 | 17 | 171 | 1.6 | 1.6 | 0.00 | 0.00 | 0.00 | 93 | 1012.2 |
| 20260507174544 | 17 | 153 | 0.0 | 0.0 | 0.00 | 0.00 | 0.00 | 93 | 1012.2 |
| 20260507174043 | 17 | 162 | 0.0 | 1.6 | 0.00 | 0.00 | 0.00 | 93 | 1012.3 |
| 20260507173539 | 17 | 176 | 1.6 | 1.6 | 0.00 | 0.00 | 0.00 | 93 | 1012.3 |
| 20260507173036 | 17 | 182 | 0.0 | 1.6 | 0.00 | 0.00 | 0.00 | 92 | 1012.2 |
| 20260507172532 | 17 | 184 | 1.6 | 1.6 | 0.00 | 0.00 | 0.00 | 92 | 1012.1 |
| 20260507172029 | 17 | 158 | 0.0 | 0.0 | 0.00 | 0.00 | 0.00 | 92 | 1012.1 |
| 20260507171524 | 17 | 165 | 0.0 | 0.0 | 0.00 | 0.00 | 0.00 | 92 | 1012.0 |
| 20260507171022 | 17 | 166 | 0.0 | 0.0 | 0.00 | 0.00 | 0.00 | 92 | 1012.2 |
| 20260507170519 | 17 | 177 | 0.0 | 0.0 | 0.00 | 0.00 | 0.00 | 92 | 1012.4 |
| 20260507170016 | 17 | 180 | 0.0 | 0.0 | 0.00 | 0.00 | 0.00 | 92 | 1012.6 |
| 20260507165511 | 17 | 155 | 0.0 | 0.0 | 0.00 | 0.00 | 0.00 | 92 | 1012.5 |
| 20260507165008 | 17 | 180 | 0.0 | 0.0 | 0.00 | 0.00 | 0.00 | 91 | 1012.7 |
| 20260507164504 | 17 | 168 | 0.0 | 0.0 | 0.00 | 0.00 | 0.00 | 91 | 1012.7 |
| 20260507164001 | 17 | 178 | 0.0 | 0.0 | 0.00 | 0.00 | 0.00 | 91 | 1012.6 |
| 20260507163458 | 17 | 172 | 0.0 | 0.0 | 0.00 | 0.00 | 0.00 | 91 | 1012.9 |
| 20260507162955 | 17 | 259 | 1.6 | 3.2 | 0.00 | 0.00 | 0.00 | 91 | 1012.8 |
| 20260507162451 | 17 | 170 | 0.0 | 0.0 | 0.00 | 0.00 | 0.00 | 91 | 1012.9 |
| 20260507161948 | 17 | 256 | 1.6 | 3.2 | 0.00 | 0.00 | 0.00 | 92 | 1013.0 |
| 20260507161444 | 17 | 283 | 3.2 | 4.8 | 0.00 | 0.00 | 0.00 | 92 | 1013.0 |
| 20260507160941 | 17 | 254 | 0.0 | 0.0 | 0.00 | 0.00 | 0.00 | 91 | 1013.2 |
| 20260507160437 | 17 | 199 | 0.0 | 0.0 | 0.00 | 0.00 | 0.00 | 91 | 1013.0 |
| 20260507155933 | 17 | 170 | 0.0 | 0.0 | 0.00 | 0.00 | 0.00 | 90 | 1012.8 |
| 20260507155429 | 17 | 169 | 0.0 | 0.0 | 0.00 | 0.00 | 0.00 | 90 | 1012.9 |
| 20260507154926 | 17 | 143 | 0.0 | 0.0 | 0.00 | 0.00 | 0.00 | 90 | 1012.9 |
| 20260507154423 | 18 | 175 | 0.0 | 0.0 | 0.00 | 0.00 | 0.00 | 90 | 1012.9 |
| 20260507153921 | 18 | 197 | 0.0 | 0.0 | 0.00 | 0.00 | 0.00 | 89 | 1013.2 |
| 20260507153417 | 18 | 186 | 0.0 | 0.0 | 0.00 | 0.00 | 0.00 | 90 | 1013.2 |
| 20260507152913 | 18 | 166 | 0.0 | 0.0 | 0.00 | 0.00 | 0.00 | 89 | 1013.4 |
| 20260507152409 | 18 | 165 | 0.0 | 0.0 | 0.00 | 0.00 | 0.00 | 89 | 1013.4 |
| 20260507151906 | 18 | 184 | 0.0 | 0.0 | 0.00 | 0.00 | 0.00 | 88 | 1013.3 |
| 20260507151402 | 18 | 190 | 0.0 | 0.0 | 0.00 | 0.00 | 0.00 | 88 | 1013.3 |
| 20260507150859 | 18 | 195 | 0.0 | 0.0 | 0.00 | 0.00 | 0.00 | 88 | 1013.2 |
| 20260507150356 | 18 | 187 | 0.0 | 0.0 | 0.00 | 0.00 | 0.00 | 88 | 1013.3 |
| 20260507145852 | 18 | 186 | 0.0 | 0.0 | 0.00 | 0.00 | 0.00 | 88 | 1013.5 |
| 20260507145348 | 18 | 187 | 0.0 | 0.0 | 0.00 | 0.00 | 0.00 | 88 | 1013.4 |
| 20260507144846 | 18 | 197 | 0.0 | 0.0 | 0.00 | 0.00 | 0.00 | 87 | 1013.4 |
| 20260507144343 | 18 | 197 | 0.0 | 0.0 | 0.00 | 0.00 | 0.00 | 87 | 1013.6 |
| 20260507143839 | 18 | 197 | 0.0 | 0.0 | 0.00 | 0.00 | 0.00 | 87 | 1013.6 |
| 20260507143337 | 18 | 180 | 0.0 | 0.0 | 0.00 | 0.00 | 0.00 | 86 | 1013.7 |
| 20260507142832 | 18 | 172 | 0.0 | 0.0 | 0.00 | 0.00 | 0.00 | 86 | 1013.5 |
| 20260507142329 | 18 | 172 | 1.6 | 3.2 | 0.00 | 0.00 | 0.00 | 85 | 1013.7 |
| 20260507141826 | 18 | 186 | 0.0 | 1.6 | 0.00 | 0.00 | 0.00 | 84 | 1013.7 |
| 20260507141323 | 19 | 191 | 0.0 | 3.2 | 0.00 | 0.00 | 0.00 | 83 | 1013.9 |
| 20260507140819 | 19 | 174 | 0.0 | 3.2 | 0.00 | 0.00 | 0.00 | 83 | 1013.6 |
| 20260507140316 | 19 | 176 | 0.0 | 1.6 | 0.00 | 0.00 | 0.00 | 82 | 1013.7 |
| 20260507135814 | 19 | 155 | 0.0 | 0.0 | 0.00 | 0.00 | 0.00 | 82 | 1013.9 |
| 20260507135310 | 19 | 206 | 3.2 | 3.2 | 0.00 | 0.00 | 0.00 | 82 | 1013.7 |
| 20260507134808 | 19 | 169 | 1.6 | 4.8 | 0.00 | 0.00 | 0.00 | 82 | 1013.8 |
| 20260507134303 | 19 | 206 | 0.0 | 9.7 | 0.00 | 0.00 | 0.00 | 82 | 1013.7 |
| 20260507133759 | 19 | 157 | 3.2 | 6.4 | 0.00 | 0.00 | 0.00 | 82 | 1013.9 |
| 20260507133256 | 19 | 175 | 0.0 | 3.2 | 0.00 | 0.00 | 0.00 | 82 | 1013.9 |
| 20260507132754 | 20 | 139 | 1.6 | 4.8 | 0.00 | 0.00 | 0.00 | 81 | 1013.9 |
| 20260507132250 | 20 | 122 | 0.0 | 3.2 | 0.00 | 0.00 | 0.00 | 81 | 1014.0 |
| 20260507131747 | 20 | 170 | 0.0 | 6.4 | 0.00 | 0.00 | 0.00 | 81 | 1013.9 |
| 20260507131244 | 20 | 178 | 4.8 | 6.4 | 0.00 | 0.00 | 0.00 | 81 | 1013.9 |
| 20260507130741 | 20 | 152 | 1.6 | 3.2 | 0.00 | 0.00 | 0.00 | 81 | 1014.1 |
| 20260507130239 | 20 | 179 | 0.0 | 4.8 | 0.00 | 0.00 | 0.00 | 81 | 1014.1 |
| 20260507125737 | 20 | 175 | 1.6 | 6.4 | 0.00 | 0.00 | 0.00 | 82 | 1014.3 |
| 20260507125234 | 20 | 164 | 1.6 | 3.2 | 0.00 | 0.00 | 0.00 | 82 | 1014.0 |
| 20260507124731 | 20 | 214 | 0.0 | 0.0 | 0.00 | 0.00 | 0.00 | 82 | 1014.1 |
| 20260507124228 | 20 | 147 | 0.0 | 0.0 | 0.00 | 0.00 | 0.00 | 81 | 1014.1 |
| 20260507123726 | 20 | 138 | 0.0 | 1.6 | 0.00 | 0.00 | 0.00 | 81 | 1014.1 |
| 20260507123224 | 20 | 152 | 0.0 | 1.6 | 0.00 | 0.00 | 0.00 | 81 | 1014.3 |
| 20260507122718 | 20 | 129 | 0.0 | 1.6 | 0.00 | 0.00 | 0.00 | 81 | 1014.3 |
| 20260507122215 | 20 | 168 | 0.0 | 1.6 | 0.00 | 0.00 | 0.00 | 81 | 1014.5 |
| 20260507121710 | 20 | 184 | 1.6 | 3.2 | 0.00 | 0.00 | 0.00 | 80 | 1014.1 |
| 20260507121207 | 20 | 201 | 1.6 | 4.8 | 0.00 | 0.00 | 0.00 | 80 | 1014.1 |
| 20260507120703 | 20 | 190 | 1.6 | 4.8 | 0.00 | 0.00 | 0.00 | 80 | 1014.1 |
| 20260507120200 | 20 | 258 | 1.6 | 3.2 | 0.00 | 0.00 | 0.00 | 80 | 1014.2 |
| 20260507115656 | 20 | 235 | 0.0 | 4.8 | 0.00 | 0.00 | 0.00 | 80 | 1014.1 |
| 20260507115151 | 20 | 223 | 8.0 | 9.7 | 0.00 | 0.00 | 0.00 | 81 | 1014.0 |
| 20260507114648 | 20 | 150 | 1.6 | 3.2 | 0.00 | 0.00 | 0.00 | 81 | 1014.0 |
| 20260507114145 | 20 | 129 | 3.2 | 4.8 | 0.00 | 0.00 | 0.00 | 81 | 1014.0 |
| 20260507113642 | 20 | 117 | 4.8 | 6.4 | 0.00 | 0.00 | 0.00 | 81 | 1014.1 |
| 20260507113139 | 20 | 231 | 1.6 | 6.4 | 0.00 | 0.00 | 0.00 | 81 | 1014.0 |
| 20260507112637 | 20 | 189 | 3.2 | 4.8 | 0.00 | 0.00 | 0.00 | 81 | 1013.9 |
| 20260507112133 | 20 | 173 | 4.8 | 9.7 | 0.00 | 0.00 | 0.00 | 81 | 1013.6 |
| 20260507111631 | 20 | 190 | 3.2 | 6.4 | 0.00 | 0.00 | 0.00 | 80 | 1013.9 |
| 20260507111127 | 20 | 184 | 1.6 | 3.2 | 0.00 | 0.00 | 0.00 | 80 | 1014.0 |
| 20260507110623 | 20 | 211 | 4.8 | 6.4 | 0.00 | 0.00 | 0.00 | 79 | 1013.8 |
| 20260507110120 | 20 | 178 | 3.2 | 6.4 | 0.00 | 0.00 | 0.00 | 79 | 1013.8 |